• Join FlightAware (Why Join?)
  • Login
  • US Flag 
08:02AM EDT


 

Airport Tracker/Info


-or-


 

Live Flight TrackerFlight Track Log ✈ UAL4550 ✈ 04-Nov-2013 ✈ KMCI - KIAH

Flight Track Log - Related Links

Times and Time Zones

All times are in EST time to prevent confusion due to time zone crossing. See the UAL4550 flight status page for this flight to view local times or setup timezone preferences in your user account.

Time Position Orientation Groundspeed Altitude Reporting Facility
EST Latitude Longitude Course Direction KTS MPH feet Rate Location/Type
05:23PM 39.3000 -94.7333 208° Southwest 162 186 1,500  Level Kansas City TRACON
05:23PM 39.2500 -94.7333 180° South 173 199 3,200 1,980 Climbing Kansas City TRACON
05:24PM 39.2000 -94.7500 194° South 245 282 5,100 2,220 Climbing Kansas City TRACON
05:26PM 38.9768 -94.7381 180° South  Level Estimated
05:26PM 39.1075 -94.7800 194° South 262 302 8,400  Level Kansas City Center
05:27PM 38.8966 -94.7441 195° South  Level Estimated
05:27PM 39.0414 -94.8078 198° South 259 298 11,000  Level Kansas City Center
05:28PM 38.8259 -94.7931 208° Southwest  Level FlightAware Approximate
05:28PM 38.9536 -94.8431 197° South 298 343 12,200  Level Kansas City Center
05:29PM 38.8683 -94.8772 197° South 330 380 13,700 1,680 Climbing Kansas City Center
05:30PM 38.7661 -94.9178 197° South 342 394 15,700 1,620 Climbing Kansas City Center
05:31PM 38.6769 -94.9519 197° South 348 400 17,100 1,620 Climbing Kansas City Center
05:32PM 38.5689 -94.9894 195° South 357 411 19,100 1,860 Climbing Kansas City Center
05:33PM 38.4803 -95.0203 195° South 347 399 21,000 1,800 Climbing Kansas City Center
05:34PM 38.3944 -95.0503 195° South 335 386 22,800 1,440 Climbing Kansas City Center
05:35PM 38.2917 -95.0850 195° South 341 392 24,000 540 Climbing Kansas City Center
05:36PM 38.1956 -95.1194 196° South 362 417 24,000  Level Kansas City Center
05:37PM 38.0744 -95.1611 195° South 397 457 24,000 660 Level Kansas City Center
05:38PM 37.9714 -95.1953 195° South 401 461 25,400 1,560 Climbing Kansas City Center
05:39PM 37.8647 -95.2336 196° South 379 436 27,300 1,740 Climbing Kansas City Center
05:40PM 37.7717 -95.2642 195° South 352 405 29,100 1,740 Climbing Kansas City Center
05:41PM 37.6836 -95.2939 195° South 331 381 30,900 1,740 Climbing Kansas City Center
05:42PM 37.5997 -95.3228 195° South 317 365 32,700 1,500 Climbing Kansas City Center
05:43PM 37.5031 -95.3558 195° South 302 348 34,100 1,200 Climbing Kansas City Center
05:44PM 37.4239 -95.3828 195° South 296 341 35,300 900 Climbing Kansas City Center
05:45PM 37.3475 -95.4083 195° South 287 330 36,000 300 Climbing Kansas City Center
05:46PM 37.2661 -95.4339 194° South 296 341 36,000  Level Kansas City Center
05:47PM 37.1794 -95.4650 196° South 316 364 36,000  Level Kansas City Center
05:48PM 37.0878 -95.4953 195° South 332 382 36,000  Level Kansas City Center
05:49PM 36.9919 -95.5267 195° South 348 400 36,000  Level Kansas City Center
05:51PM 36.9058 -95.5479 195° South  Level FlightAware Approximate
05:51PM 36.7747 -95.5975 195° South 367 422 36,000  Level Kansas City Center
05:53PM 36.6764 -95.6308 195° South 367 422 36,000  Level Kansas City Center
05:54PM 36.5847 -95.6625 196° South 366 421 36,000  Level Kansas City Center
05:55PM 36.4650 -95.7014 195° South 368 423 36,000  Level Kansas City Center
05:56PM 36.3656 -95.7322 194° South 368 423 36,000  Level Kansas City Center
05:57PM 36.2636 -95.7664 195° South 369 425 36,000  Level Kansas City Center
05:58PM 36.1650 -95.7992 195° South 368 423 36,000  Level Kansas City Center
05:59PM 36.0667 -95.8333 196° South 368 423 36,000  Level Kansas City Center
06:00PM 35.9689 -95.8678 196° South 367 422 36,000  Level Kansas City Center
06:01PM 35.8714 -95.9014 196° South 364 419 36,000  Level Kansas City Center
06:02PM 35.7522 -95.9428 196° South 368 423 36,000  Level Kansas City Center
06:03PM 35.6536 -95.9769 196° South 368 423 36,000  Level Kansas City Center
06:04PM 35.5547 -96.0119 196° South 369 425 36,000  Level Kansas City Center
06:05PM 35.4547 -96.0453 195° South 371 427 36,000  Level Kansas City Center
06:06PM 35.3564 -96.0797 196° South 372 428 36,000  Level Kansas City Center
06:07PM 35.2078 -96.1306 196° South 375 432 36,000  Level Fort Worth Center
06:08PM 35.1061 -96.1650 195° South 375 432 36,000  Level Fort Worth Center
06:09PM 35.0061 -96.2019 197° South 375 432 36,000  Level Fort Worth Center
06:10PM 34.9022 -96.2364 195° South 375 432 36,000  Level Fort Worth Center
06:11PM 34.8003 -96.2706 195° South 380 437 36,000  Level Fort Worth Center
06:12PM 34.6983 -96.3072 196° South 380 437 36,000  Level Fort Worth Center
06:13PM 34.5967 -96.3414 195° South 380 437 36,000  Level Fort Worth Center
06:14PM 34.4925 -96.3781 196° South 380 437 36,000  Level Fort Worth Center
06:15PM 34.3906 -96.4119 195° South 380 437 36,000  Level Fort Worth Center
06:16PM 34.2844 -96.4458 195° South 380 437 36,000  Level Fort Worth Center
06:17PM 34.1825 -96.4794 195° South 380 437 36,000  Level Fort Worth Center
06:18PM 34.0719 -96.5108 193° South 373 429 36,000  Level Fort Worth Center
06:19PM 33.9617 -96.5319 189° South 378 435 36,000  Level Fort Worth Center
06:20PM 33.8533 -96.5531 189° South 393 452 36,000  Level Fort Worth Center
06:21PM 33.7428 -96.5767 190° South 404 465 36,000  Level Fort Worth Center
06:22PM 33.6322 -96.6003 190° South 404 465 36,000  Level Fort Worth Center
06:23PM 33.5197 -96.6236 190° South 410 472 36,000  Level Fort Worth Center
06:24PM 33.4092 -96.6419 188° South 410 472 36,000  Level Fort Worth Center
06:25PM 33.2922 -96.6406 179° South 410 472 36,000  Level Fort Worth Center
06:26PM 33.1753 -96.6292 175° South 415 478 36,000  Level Fort Worth Center
06:27PM 33.0814 -96.6250 178° South 420 483 36,000  Level Fort Worth Center
06:28PM 32.9539 -96.6136 176° South 420 483 36,000  Level Fort Worth Center
06:29PM 32.8350 -96.6050 177° South 425 489 36,000  Level Fort Worth Center
06:30PM 32.7181 -96.5986 177° South 425 489 36,000  Level Fort Worth Center
06:31PM 32.5989 -96.5897 176° South 425 489 36,000  Level Fort Worth Center
06:32PM 32.4819 -96.5833 177° South 425 489 36,000  Level Fort Worth Center
06:33PM 32.3631 -96.5722 175° South 425 489 36,000 -660 Level Fort Worth Center
06:34PM 32.2461 -96.5658 177° South 425 489 34,700 -1,380 Descending Fort Worth Center
06:35PM 32.1311 -96.5597 177° South 425 489 33,300 -1,440 Descending Fort Worth Center
06:36PM 32.0161 -96.5461 174° South 425 489 31,900 -1,440 Descending Fort Worth Center
06:37PM 31.9033 -96.5225 170° South 420 483 30,500 -1,260 Descending Fort Worth Center
06:38PM 31.7883 -96.4992 170° South 420 483 29,400 -720 Descending Fort Worth Center
06:40PM 31.6442 -96.4714 171° South 428 493 29,000 -180 Descending Houston Center
06:41PM 31.5239 -96.4469 170° South 432 497 29,000 -540 Level Houston Center
06:42PM 31.4083 -96.3928 158° South 445 512 27,900 -1,140 Descending Houston Center
06:43PM 31.2928 -96.3289 155° Southeast 452 520 26,700 -1,260 Descending Houston Center
06:44PM 31.1778 -96.2642 154° Southeast 452 520 25,400 -1,860 Descending Houston Center
06:45PM 31.0661 -96.2019 154° Southeast 440 506 22,900 -2,640 Descending Houston Center
06:46PM 30.9456 -96.1344 154° Southeast 405 466 19,900 -2,580 Descending Houston Center
06:47PM 30.8497 -96.0811 154° Southeast 379 436 17,600 -2,220 Descending Houston Center
06:48PM 30.7628 -96.0331 155° Southeast 363 418 15,400 -2,220 Descending Houston Center
06:48PM 30.7022 -95.9992 154° Southeast 353 406 14,100 -1,920 Descending Houston Center
06:49PM 30.6742 -95.9844 156° South 353 406 13,500 -1,980 Descending Houston Center
06:50PM 30.6075 -95.9494 156° South 342 394 11,900 -1,980 Descending Houston Center
06:50PM 30.5900 -95.9375 150° Southeast 344 396 11,500 -1,620 Descending Houston Center
06:51PM 30.5192 -95.8989 155° Southeast 330 380 10,300 -1,380 Descending Houston Center
06:51PM 30.5075 -95.8919 153° Southeast 332 382 10,100 -360 Descending Houston Center
06:51PM 30.4531 -95.8631 155° Southeast 272 313 10,000 -240 Descending Houston Center
06:52PM 30.4258 -95.8397 144° Southeast 276 318 9,900 -840 Descending Houston Center
06:53PM 30.3781 -95.8428 183° South 247 284 9,100 -1,260 Descending Houston Center
06:53PM 30.3586 -95.8422 179° South 249 287 8,600 -1,080 Descending Houston Center
06:54PM 30.3156 -95.8475 186° South 247 284 8,100 -600 Descending Houston Center
06:54PM 30.2911 -95.8494 184° South 244 281 8,000 -120 Descending Houston Center
06:55PM 30.2406 -95.8539 184° South 240 276 8,000  Level Houston Center
06:55PM 30.2233 -95.8547 182° South 244 281 8,000  Level Houston Center
06:56PM 30.1739 -95.8372 163° South 245 282 8,000 -240 Level Houston Center
06:56PM 30.1589 -95.8303 158° South 248 285 7,800 -1,320 Descending Houston Center
06:57PM 30.1150 -95.8128 161° South 235 270 6,800 -1,500 Descending Houston Center
06:57PM 30.0978 -95.8058 161° South 235 270 6,300 -1,260 Descending Houston Center
06:58PM 30.0517 -95.7839 158° South 216 249 5,400 -1,080 Descending Houston Center
06:58PM 30.0469 -95.7739 119° Southeast 217 250 5,200 -480 Descending Houston Center
06:59PM 30.0181 -95.7372 132° Southeast 198 228 5,000 -300 Descending Houston Center
06:59PM 30.0028 -95.7133 126° Southeast 202 232 4,900 -720 Descending Houston Center
07:00PM 29.9900 -95.6803 114° Southeast 210 242 4,300 -900 Descending Houston Center
07:00PM 29.9936 -95.6503 82° East 206 237 4,000 -360 Descending Houston Center
07:01PM 29.9922 -95.6125 92° East 167 192 3,900 -720 Descending Houston Center
07:01PM 29.9931 -95.5931 87° East 182 209 3,300 -1,020 Descending Houston Center
07:02PM 29.9958 -95.5567 85° East 169 194 2,900 -240 Descending Houston Center
07:02PM 29.9961 -95.5408 89° East 168 193 3,100  Climbing Houston Center
07:03PM 29.9936 -95.5108 95° East 139 160 2,900 -600 Descending Houston Center
07:03PM 29.9936 -95.4972 90° East 153 176 2,500 -900 Descending Houston Center
07:04PM 29.9925 -95.4725 93° East 109 125 2,000 -600 Descending Houston Center
07:04PM 29.9936 -95.4589 85° East 137 158 1,900 -600 Descending Houston Center
07:05PM 29.9931 -95.4339 91° East 116 133 1,400 -600 Descending Houston Center
07:05PM 29.9944 -95.4231 82° East 122 140 1,300 -600 Descending Houston Center
07:06PM 29.9922 -95.4003 96° East 118 136 900 -780 Descending Houston Center
07:06PM 29.9942 -95.3761 85° East 119 137 500 -360 Descending Houston Center
07:07PM 29.9936 -95.3364 91° East 120 138 400 -120 Descending Houston Center